Time;durP1;ratioP1;P1;durP2;ratioP2;P2;SDS_P1;SDS_P2;PMS_P1;PMS_P2;Temp;Humidity;BMP_temperature;BMP_pressure;BME280_temperature;BME280_humidity;BME280_pressure;Samples;Min_cycle;Max_cycle;Signal;HPM_P1;HPM_P2
2023/04/19 00:02:24;;;;;;;17.42;13.65;;;;;;;13.04;62.36;100731.53;5027316;28;100841;-84
2023/04/19 00:04:49;;;;;;;17.00;12.80;;;;;;;13.05;62.77;100738.53;5006665;27;97929;-85
2023/04/19 00:07:17;;;;;;;17.30;13.70;;;;;;;13.19;62.50;100765.22;5024930;27;97536;-85
2023/04/19 00:09:43;;;;;;;19.67;13.15;;;;;;;13.08;63.00;100746.31;5046542;27;100301;-85
2023/04/19 00:12:08;;;;;;;16.95;12.25;;;;;;;13.12;62.58;100745.28;4984080;28;101372;-84
2023/04/19 00:14:34;;;;;;;16.35;12.30;;;;;;;13.16;62.34;100749.53;5013749;28;97168;-86
2023/04/19 00:16:59;;;;;;;20.15;14.20;;;;;;;13.11;61.99;100754.09;5002996;28;97248;-84
2023/04/19 00:19:25;;;;;;;23.33;18.27;;;;;;;13.12;62.19;100755.84;5041936;27;100663;-84
2023/04/19 00:21:51;;;;;;;24.67;16.88;;;;;;;13.09;62.76;100754.19;5011299;27;101173;-85
2023/04/19 00:24:17;;;;;;;17.92;13.13;;;;;;;13.06;62.39;100754.28;5009743;28;97356;-84
2023/04/19 00:26:43;;;;;;;16.98;12.63;;;;;;;13.10;62.83;100753.25;5014821;28;97167;-85
2023/04/19 00:29:09;;;;;;;15.32;12.57;;;;;;;13.09;62.50;100753.31;5012274;28;101601;-85
2023/04/19 00:31:34;;;;;;;14.18;12.07;;;;;;;12.97;62.73;100744.06;5013139;28;101336;-85
2023/04/19 00:34:02;;;;;;;14.23;11.93;;;;;;;13.00;63.40;100751.00;5004827;28;96728;-83
2023/04/19 00:36:28;;;;;;;16.88;12.27;;;;;;;12.91;63.12;100739.03;5044315;27;97009;-85
2023/04/19 00:38:53;;;;;;;14.73;10.63;;;;;;;12.86;62.61;100736.59;5007731;27;100245;-84
2023/04/19 00:41:19;;;;;;;15.52;11.75;;;;;;;12.95;62.89;100743.28;5024810;28;98603;-85
2023/04/19 00:43:44;;;;;;;12.77;10.38;;;;;;;12.95;62.20;100730.13;5013188;28;96851;-85
2023/04/19 00:46:10;;;;;;;14.48;10.57;;;;;;;12.89;61.94;100727.72;5013286;28;97108;-84
2023/04/19 00:48:37;;;;;;;15.98;10.23;;;;;;;12.87;62.02;100732.16;5023370;28;101091;-83
2023/04/19 00:51:03;;;;;;;12.77;9.40;;;;;;;12.85;61.92;100721.66;5029157;28;101083;-85
2023/04/19 00:53:29;;;;;;;12.45;10.10;;;;;;;12.82;61.74;100734.09;5008862;28;96897;-84
2023/04/19 00:55:56;;;;;;;12.93;9.43;;;;;;;12.78;61.99;100729.88;5029720;27;97599;-85
2023/04/19 00:58:23;;;;;;;15.13;10.05;;;;;;;12.69;62.01;100717.91;5008480;28;101366;-86
2023/04/19 01:00:48;;;;;;;13.45;9.85;;;;;;;12.67;61.72;100715.31;5028833;28;97031;-85
2023/04/19 01:03:15;;;;;;;10.93;9.70;;;;;;;12.62;61.58;100705.84;5011714;28;98223;-84
2023/04/19 01:05:41;;;;;;;12.88;9.15;;;;;;;12.69;61.28;100708.22;5012542;28;96773;-85
2023/04/19 01:08:11;;;;;;;10.85;9.20;;;;;;;12.67;60.52;100717.09;5012015;28;101494;-85
2023/04/19 01:10:37;;;;;;;11.85;9.18;;;;;;;12.63;60.79;100704.97;5012766;28;101526;-85
2023/04/19 01:13:03;;;;;;;11.18;8.98;;;;;;;12.62;60.51;100697.94;5013455;28;96821;-85
2023/04/19 01:15:29;;;;;;;11.82;9.52;;;;;;;12.55;59.95;100702.59;5024725;27;96895;-84
2023/04/19 01:17:55;;;;;;;14.05;9.77;;;;;;;12.57;60.37;100700.78;5034876;27;98103;-83
2023/04/19 01:20:21;;;;;;;11.75;9.13;;;;;;;12.56;60.42;100696.41;5001730;28;100066;-85
2023/04/19 01:22:47;;;;;;;13.07;8.50;;;;;;;12.56;60.44;100696.41;5028802;28;96912;-85
2023/04/19 01:25:12;;;;;;;11.27;9.88;;;;;;;12.55;60.08;100693.84;5011703;28;100165;-85
2023/04/19 01:27:41;;;;;;;13.50;9.73;;;;;;;12.55;60.03;100693.84;5010899;28;98507;-85
2023/04/19 01:30:07;;;;;;;10.65;8.70;;;;;;;12.53;60.28;100699.13;5018359;28;100807;-85
2023/04/19 01:32:33;;;;;;;13.32;9.95;;;;;;;12.46;60.06;100695.88;5007580;28;97755;-85
2023/04/19 01:34:58;;;;;;;13.98;9.68;;;;;;;12.40;60.35;100669.78;5011614;28;97061;-84
2023/04/19 01:37:24;;;;;;;11.48;9.35;;;;;;;12.48;59.97;100689.69;5028345;28;101379;-83
2023/04/19 01:39:49;;;;;;;13.27;9.23;;;;;;;12.44;59.95;100683.69;5011626;28;98185;-85
2023/04/19 01:42:15;;;;;;;11.80;9.63;;;;;;;12.45;59.84;100680.16;5008928;28;97134;-85
2023/04/19 01:44:40;;;;;;;11.50;8.93;;;;;;;12.46;59.06;100685.34;5029839;27;97249;-85
2023/04/19 01:47:06;;;;;;;10.77;8.30;;;;;;;12.45;58.53;100680.16;5014899;28;101546;-84
2023/04/19 01:49:31;;;;;;;10.75;8.93;;;;;;;12.38;58.09;100678.63;5017775;27;101259;-84
2023/04/19 01:51:57;;;;;;;11.82;7.63;;;;;;;12.42;57.84;100681.13;5013263;28;97287;-83
2023/04/19 01:54:23;;;;;;;13.70;9.15;;;;;;;12.35;57.52;100676.97;5025148;27;97255;-85
2023/04/19 01:56:49;;;;;;;12.20;8.85;;;;;;;12.34;57.42;100674.41;5012427;28;101320;-84
2023/04/19 01:59:14;;;;;;;9.95;7.93;;;;;;;12.38;56.91;100665.47;5012868;28;101455;-84
2023/04/19 02:01:40;;;;;;;10.20;8.05;;;;;;;12.37;57.21;100669.88;5015957;28;97102;-85
2023/04/19 02:04:06;;;;;;;13.80;8.43;;;;;;;12.36;57.01;100664.66;5027639;28;96892;-84
2023/04/19 02:06:32;;;;;;;10.98;8.43;;;;;;;12.29;56.49;100661.41;4994916;27;101161;-86
2023/04/19 02:08:57;;;;;;;9.43;7.65;;;;;;;12.32;56.09;100663.91;5014682;28;101741;-84
2023/04/19 02:11:23;;;;;;;8.48;6.68;;;;;;;12.25;55.13;100665.06;5042774;27;97356;-85
2023/04/19 02:13:48;;;;;;;9.48;7.15;;;;;;;12.21;54.55;100650.28;5011626;28;97006;-85
2023/04/19 02:16:14;;;;;;;9.15;7.10;;;;;;;12.25;53.95;100665.06;5014584;28;101006;-85
2023/04/19 02:18:41;;;;;;;10.75;6.57;;;;;;;12.18;53.91;100660.91;5023436;28;102138;-85
2023/04/19 02:21:08;;;;;;;10.98;6.35;;;;;;;12.12;53.85;100659.34;5031374;28;96792;-84
2023/04/19 02:23:34;;;;;;;14.32;8.63;;;;;;;12.09;54.10;100650.72;5014570;28;97350;-85
2023/04/19 02:26:02;;;;;;;12.13;7.53;;;;;;;12.10;54.11;100657.69;4998551;28;101502;-85
2023/04/19 02:28:30;;;;;;;11.48;7.20;;;;;;;12.07;54.90;100650.78;5009847;27;101117;-84
2023/04/19 02:30:57;;;;;;;10.05;7.25;;;;;;;12.04;54.38;100655.28;5012071;28;97172;-84
2023/04/19 02:33:23;;;;;;;11.93;7.10;;;;;;;12.05;53.48;100644.72;5011519;28;97077;-84
2023/04/19 02:35:48;;;;;;;7.78;5.80;;;;;;;12.00;52.92;100667.69;5047538;27;97996;-85
2023/04/19 02:38:14;;;;;;;10.27;5.95;;;;;;;11.83;51.41;100649.81;5030932;28;101255;-85
2023/04/19 02:40:39;;;;;;;11.07;5.45;;;;;;;11.93;50.55;100647.78;5014735;28;97263;-85
2023/04/19 02:43:05;;;;;;;8.45;5.43;;;;;;;11.89;50.67;100649.63;5015979;28;97174;-84
2023/04/19 02:45:30;;;;;;;9.35;4.97;;;;;;;11.90;50.07;100647.88;4990109;28;100943;-84
2023/04/19 02:47:57;;;;;;;8.68;5.82;;;;;;;11.87;50.23;100646.22;5047972;27;101457;-84
2023/04/19 02:50:23;;;;;;;10.90;6.03;;;;;;;11.84;50.43;100642.78;5013974;28;97434;-85
2023/04/19 02:52:49;;;;;;;9.45;5.57;;;;;;;11.84;50.70;100638.41;5032165;27;97079;-85
2023/04/19 02:55:16;;;;;;;12.45;5.80;;;;;;;11.78;51.18;100643.88;5014198;28;101891;-85
2023/04/19 02:57:42;;;;;;;10.75;6.55;;;;;;;11.76;51.18;100641.28;5015012;28;99103;-85
2023/04/19 03:00:10;;;;;;;9.55;5.50;;;;;;;11.79;51.09;100632.41;5030571;28;97431;-83
2023/04/19 03:02:38;;;;;;;8.10;6.10;;;;;;;11.79;50.46;100630.66;5027520;27;98460;-85
2023/04/19 03:05:05;;;;;;;10.38;6.97;;;;;;;11.74;50.02;100632.56;5014222;28;102159;-84
2023/04/19 03:07:31;;;;;;;11.70;7.97;;;;;;;11.67;50.26;100628.44;5013661;28;101576;-85
2023/04/19 03:09:57;;;;;;;9.52;7.25;;;;;;;11.68;49.80;100618.78;5045669;27;97246;-85
2023/04/19 03:12:24;;;;;;;10.25;8.15;;;;;;;11.67;49.58;100627.59;5004184;28;96947;-85
2023/04/19 03:14:49;;;;;;;10.13;7.95;;;;;;;11.54;48.93;100612.19;5008444;28;100441;-85
2023/04/19 03:17:15;;;;;;;17.38;15.98;;;;;;;11.59;49.23;100617.31;5014249;28;100797;-85
2023/04/19 03:19:41;;;;;;;16.90;15.57;;;;;;;11.56;49.19;100615.66;5010357;28;97643;-85
2023/04/19 03:22:07;;;;;;;17.42;14.45;;;;;;;11.56;48.78;100609.53;5031007;28;96955;-85
2023/04/19 03:24:33;;;;;;;16.67;15.27;;;;;;;11.58;48.06;100612.97;5010396;28;100883;-84
2023/04/19 03:27:10;;;;;;;16.73;15.25;;;;;;;11.52;48.19;100602.66;5030798;28;99211;-84
2023/04/19 03:29:36;;;;;;;19.25;14.82;;;;;;;11.57;48.11;100609.47;4997696;28;96818;-85
2023/04/19 03:32:06;;;;;;;16.88;15.38;;;;;;;11.42;48.24;100591.59;4998470;28;97297;-85
2023/04/19 03:34:32;;;;;;;17.63;16.20;;;;;;;11.36;48.65;100591.78;5036706;27;101598;-84
2023/04/19 03:36:58;;;;;;;16.90;15.60;;;;;;;11.25;48.78;100568.47;5043555;27;100728;-84
2023/04/19 03:39:24;;;;;;;17.17;15.50;;;;;;;11.38;49.41;100600.50;5013321;28;97042;-85
2023/04/19 03:41:54;;;;;;;16.58;15.25;;;;;;;11.40;49.56;100598.66;5015605;28;97167;-85
2023/04/19 03:44:55;;;;;;;17.33;15.65;;;;;;;11.42;49.76;100602.09;5033024;27;98824;-84
2023/04/19 03:47:22;;;;;;;16.80;15.40;;;;;;;11.39;50.51;100607.44;5023211;28;101320;-84
2023/04/19 03:49:53;;;;;;;17.02;15.43;;;;;;;11.34;50.45;100601.47;5023594;27;97397;-84
2023/04/19 03:52:18;;;;;;;16.85;15.40;;;;;;;11.37;50.08;100605.78;5002371;27;97559;-84
2023/04/19 03:54:44;;;;;;;17.17;15.63;;;;;;;11.35;50.03;100607.63;5010732;28;97884;-84
2023/04/19 03:57:22;;;;;;;17.50;15.45;;;;;;;11.36;50.00;100602.31;5000389;28;101701;-85
2023/04/19 03:59:48;;;;;;;16.55;15.20;;;;;;;11.34;49.55;100606.75;4991422;28;97443;-85
2023/04/19 04:02:14;;;;;;;16.95;15.45;;;;;;;11.33;49.96;100603.25;5012706;28;96973;-86
2023/04/19 04:04:39;;;;;;;16.80;15.63;;;;;;;11.36;49.57;100615.44;4996291;28;101813;-85
2023/04/19 04:07:06;;;;;;;17.42;16.00;;;;;;;11.27;49.24;100610.50;5010753;28;101909;-85
2023/04/19 04:09:32;;;;;;;18.55;16.65;;;;;;;11.25;48.94;100617.56;5027417;27;97268;-83
2023/04/19 04:11:58;;;;;;;17.50;15.75;;;;;;;11.16;49.28;100592.44;5011580;28;97066;-84
2023/04/19 04:14:23;;;;;;;16.58;15.18;;;;;;;11.25;49.04;100610.53;5032799;27;101937;-85
2023/04/19 04:16:49;;;;;;;16.73;15.18;;;;;;;11.21;48.62;100602.81;5041652;27;101176;-85
2023/04/19 04:19:16;;;;;;;16.40;15.18;;;;;;;11.17;49.00;100607.31;5028547;28;96898;-84
2023/04/19 04:21:41;;;;;;;15.93;14.73;;;;;;;11.13;50.01;100616.19;4992725;28;97424;-85
2023/04/19 04:24:08;;;;;;;15.50;14.30;;;;;;;11.12;50.96;100618.88;5040676;27;100751;-85
2023/04/19 04:26:50;;;;;;;16.60;15.30;;;;;;;10.96;53.15;100628.97;5015770;28;100874;-85
2023/04/19 04:29:22;;;;;;;16.55;15.10;;;;;;;10.92;53.79;100622.09;5013293;27;98087;-85
2023/04/19 04:31:50;;;;;;;16.42;14.85;;;;;;;10.73;53.53;100630.53;5053936;27;97179;-84
2023/04/19 04:34:19;;;;;;;16.40;15.20;;;;;;;10.60;54.21;100623.94;5028825;27;100757;-86
2023/04/19 04:36:52;;;;;;;17.48;15.95;;;;;;;10.51;55.01;100634.69;5002869;28;100033;-85
2023/04/19 04:39:21;;;;;;;17.10;15.63;;;;;;;10.48;55.30;100640.03;5035184;27;97141;-85
2023/04/19 04:41:48;;;;;;;16.67;15.27;;;;;;;10.40;55.96;100625.34;5037663;27;98027;-85
2023/04/19 04:44:14;;;;;;;17.02;15.32;;;;;;;10.29;55.84;100608.19;5003197;28;101348;-84
2023/04/19 04:46:41;;;;;;;16.33;14.80;;;;;;;10.32;56.51;100614.22;5004532;28;99561;-84
2023/04/19 04:49:09;;;;;;;15.75;14.40;;;;;;;10.26;56.62;100619.59;5021502;28;97510;-84
2023/04/19 04:51:36;;;;;;;16.42;14.85;;;;;;;10.29;56.66;100611.66;5010274;28;97207;-83
2023/04/19 04:54:04;;;;;;;16.40;14.88;;;;;;;10.27;57.58;100623.09;4996907;28;100421;-83
2023/04/19 04:56:30;;;;;;;16.10;14.80;;;;;;;10.02;58.00;100599.31;5012024;28;100566;-83
2023/04/19 04:58:56;;;;;;;14.65;13.50;;;;;;;10.22;58.14;100631.09;5036116;27;97023;-83
2023/04/19 05:01:27;;;;;;;15.00;13.85;;;;;;;10.23;58.06;100639.81;5020458;27;97268;-83
2023/04/19 05:03:54;;;;;;;15.90;14.50;;;;;;;10.05;58.55;100615.81;4979882;28;101554;-84
2023/04/19 05:06:20;;;;;;;15.43;13.95;;;;;;;10.14;58.93;100633.06;5042442;27;100276;-83
2023/04/19 05:08:46;;;;;;;15.38;14.05;;;;;;;10.08;58.95;100639.34;5009811;28;97383;-83
2023/04/19 05:11:21;;;;;;;16.48;14.88;;;;;;;9.94;58.51;100602.13;5009336;28;97122;-85
2023/04/19 05:13:46;;;;;;;16.33;14.77;;;;;;;10.16;58.88;100636.50;5009451;28;101025;-85
2023/04/19 05:16:12;;;;;;;15.07;13.75;;;;;;;10.09;59.17;100633.16;5024131;28;98284;-83
2023/04/19 05:18:41;;;;;;;15.10;13.73;;;;;;;9.99;58.82;100610.72;5003920;27;98391;-83
2023/04/19 05:21:09;;;;;;;15.40;14.20;;;;;;;10.13;58.30;100631.34;5026146;27;97029;-82
2023/04/19 05:23:36;;;;;;;15.07;13.82;;;;;;;10.05;58.09;100625.44;5003250;28;100660;-83
2023/04/19 05:26:02;;;;;;;16.08;14.52;;;;;;;10.13;57.54;100624.34;4998394;28;100613;-82
2023/04/19 05:28:28;;;;;;;17.90;15.48;;;;;;;10.09;57.69;100624.44;5013305;28;97111;-83
2023/04/19 05:31:19;;;;;;;15.07;13.95;;;;;;;10.11;56.91;100620.88;5011176;28;97905;-83
2023/04/19 05:33:59;;;;;;;16.08;14.40;;;;;;;9.96;56.59;100608.19;5006241;28;100979;-88
2023/04/19 05:36:26;;;;;;;16.33;14.85;;;;;;;10.06;56.70;100600.94;4997752;28;100512;-85
2023/04/19 05:38:53;;;;;;;15.20;14.10;;;;;;;10.07;56.17;100608.78;5028128;27;96731;-78
2023/04/19 05:41:19;;;;;;;15.02;13.93;;;;;;;10.07;56.15;100600.03;5011815;28;96847;-83
2023/04/19 05:43:45;;;;;;;15.13;13.95;;;;;;;10.11;55.60;100601.66;5003216;28;100453;-80
2023/04/19 05:46:12;;;;;;;16.08;14.73;;;;;;;10.15;55.45;100603.28;5028348;27;101568;-83
2023/04/19 05:48:37;;;;;;;15.52;14.38;;;;;;;10.21;55.71;100603.16;5011799;28;96834;-82
2023/04/19 05:51:23;;;;;;;14.90;13.65;;;;;;;10.24;55.85;100596.94;4999496;27;97092;-82
2023/04/19 05:54:04;;;;;;;15.60;14.33;;;;;;;10.29;56.39;100601.19;5017863;27;101401;-83
2023/04/19 05:56:30;;;;;;;16.13;14.68;;;;;;;10.28;56.57;100583.72;5011538;28;102122;-84
2023/04/19 05:58:55;;;;;;;15.07;13.73;;;;;;;10.35;56.67;100580.00;5021530;27;97118;-83
2023/04/19 06:01:22;;;;;;;15.35;14.15;;;;;;;10.26;55.13;100561.03;5026118;28;96944;-83
2023/04/19 06:03:51;;;;;;;15.75;14.45;;;;;;;10.36;55.61;100586.13;5015957;28;101617;-83
2023/04/19 06:06:18;;;;;;;15.68;14.30;;;;;;;10.49;55.48;100594.50;4996361;28;101890;-83
2023/04/19 06:08:44;;;;;;;15.43;14.30;;;;;;;10.33;55.44;100567.88;5031888;28;96750;-84
2023/04/19 06:11:10;;;;;;;16.48;14.77;;;;;;;10.46;54.56;100598.06;5027458;27;97486;-84
2023/04/19 06:13:36;;;;;;;15.40;14.18;;;;;;;10.48;54.56;100596.28;5005702;28;100511;-84
2023/04/19 06:16:02;;;;;;;15.90;14.60;;;;;;;10.41;55.15;100582.47;5031550;28;98043;-84
2023/04/19 06:18:28;;;;;;;16.40;14.95;;;;;;;10.55;54.14;100597.81;5025529;27;97188;-84
2023/04/19 06:20:53;;;;;;;16.13;14.48;;;;;;;10.58;54.13;100592.47;5020390;28;96934;-83
2023/04/19 06:23:19;;;;;;;17.00;15.60;;;;;;;10.57;54.24;100597.78;5022522;28;101584;-84
2023/04/19 06:25:47;;;;;;;16.27;15.07;;;;;;;10.82;54.23;100606.63;5031169;28;97800;-83
2023/04/19 06:28:13;;;;;;;16.35;15.02;;;;;;;11.15;53.95;100603.00;5009513;28;97776;-81
2023/04/19 06:30:38;;;;;;;16.80;15.32;;;;;;;11.55;53.06;100607.81;4995126;28;97164;-82
2023/04/19 06:33:04;;;;;;;15.77;14.68;;;;;;;11.81;51.62;100601.69;4997842;28;101059;-83
2023/04/19 06:35:30;;;;;;;16.52;15.10;;;;;;;12.18;51.35;100609.13;5030810;28;101434;-82
2023/04/19 06:37:56;;;;;;;15.85;14.63;;;;;;;12.42;50.79;100602.13;5031839;28;97307;-83
2023/04/19 06:40:21;;;;;;;15.77;14.38;;;;;;;12.75;49.82;100600.91;5030856;28;97504;-83
2023/04/19 06:42:47;;;;;;;15.85;14.52;;;;;;;13.12;48.34;100605.59;5045668;27;98085;-86
2023/04/19 06:45:13;;;;;;;16.15;14.85;;;;;;;13.48;47.62;100607.69;5009749;28;101592;-78
2023/04/19 06:47:39;;;;;;;16.23;14.93;;;;;;;13.52;46.04;100596.94;5038696;27;96865;-78
2023/04/19 06:50:05;;;;;;;16.08;14.30;;;;;;;13.46;46.18;100593.69;5011666;28;98151;-77
2023/04/19 06:52:31;;;;;;;15.20;13.90;;;;;;;13.52;46.20;100604.00;5012356;27;102950;-78
2023/04/19 06:54:56;;;;;;;15.45;14.25;;;;;;;13.33;47.03;100593.38;5015611;28;101427;-77
2023/04/19 06:57:22;;;;;;;16.30;14.82;;;;;;;13.13;46.88;100580.94;5020317;27;97446;-77
2023/04/19 06:59:47;;;;;;;15.73;14.52;;;;;;;13.01;46.77;100589.34;5030507;27;96917;-77
2023/04/19 07:02:13;;;;;;;14.90;13.63;;;;;;;12.95;47.38;100592.25;5011916;28;97551;-77
2023/04/19 07:04:38;;;;;;;17.77;16.17;;;;;;;12.97;46.70;100599.13;5042895;27;97319;-77
2023/04/19 07:07:04;;;;;;;18.42;16.85;;;;;;;12.78;47.12;100590.25;5029876;28;96766;-77
2023/04/19 07:09:29;;;;;;;15.75;14.55;;;;;;;12.78;47.04;100599.00;4999386;28;96844;-77
2023/04/19 07:11:56;;;;;;;15.77;14.57;;;;;;;13.37;46.90;100584.38;5001784;28;101529;-77
2023/04/19 07:14:22;;;;;;;15.32;14.10;;;;;;;13.87;46.59;100601.63;5012803;28;100797;-77
2023/04/19 07:16:48;;;;;;;15.52;14.13;;;;;;;14.10;44.85;100596.22;5002214;28;97242;-77
2023/04/19 07:19:14;;;;;;;15.23;14.02;;;;;;;13.94;44.97;100595.19;5027439;27;96910;-78
2023/04/19 07:21:39;;;;;;;16.17;14.65;;;;;;;14.10;44.89;100603.28;4996356;27;101217;-87
2023/04/19 07:24:06;;;;;;;15.90;14.48;;;;;;;14.04;44.61;100576.22;5028329;27;101562;-87
2023/04/19 07:26:32;;;;;;;15.73;14.07;;;;;;;14.21;45.36;100583.38;5029386;28;97898;-93
2023/04/19 07:28:58;;;;;;;15.10;13.70;;;;;;;14.80;43.83;100581.59;5015687;28;96880;-85
2023/04/19 07:31:24;;;;;;;15.43;14.13;;;;;;;15.35;42.73;100562.19;5014539;28;101490;-89
2023/04/19 07:33:51;;;;;;;15.63;14.25;;;;;;;15.75;41.52;100539.03;4999492;28;101603;-86
2023/04/19 07:36:16;;;;;;;16.27;14.68;;;;;;;16.36;41.18;100569.34;5012933;28;97199;-86
2023/04/19 07:38:42;;;;;;;16.95;15.20;;;;;;;16.48;40.86;100548.31;5034971;27;96949;-91
2023/04/19 07:41:08;;;;;;;15.82;14.38;;;;;;;16.76;40.31;100568.03;5024370;27;101697;-85
2023/04/19 07:43:33;;;;;;;15.98;14.35;;;;;;;16.89;41.39;100565.53;5009812;28;100317;-87
2023/04/19 07:45:59;;;;;;;15.80;14.40;;;;;;;16.43;41.10;100541.56;5037094;27;96761;-87
2023/04/19 07:48:25;;;;;;;16.05;14.70;;;;;;;16.08;40.52;100552.28;5008950;28;96790;-86
2023/04/19 07:50:51;;;;;;;15.57;14.25;;;;;;;15.49;41.45;100527.09;5032368;28;98929;-86
2023/04/19 07:53:17;;;;;;;15.18;14.02;;;;;;;15.28;42.49;100548.41;5015129;28;99327;-85
2023/04/19 07:55:43;;;;;;;16.67;15.13;;;;;;;15.59;42.74;100536.28;5005715;28;96899;-86
2023/04/19 07:58:08;;;;;;;16.88;15.10;;;;;;;16.18;42.00;100550.00;5011870;27;96969;-84
2023/04/19 08:00:35;;;;;;;15.68;14.23;;;;;;;16.46;40.59;100538.75;4992736;28;100369;-84
2023/04/19 08:03:01;;;;;;;16.40;14.18;;;;;;;16.82;40.46;100546.50;5010104;28;100779;-85
2023/04/19 08:05:26;;;;;;;15.50;14.20;;;;;;;17.70;40.06;100554.66;5012330;28;97222;-83
2023/04/19 08:07:52;;;;;;;16.85;14.65;;;;;;;18.27;38.07;100560.06;4995711;28;97081;-83
2023/04/19 08:10:18;;;;;;;16.13;15.00;;;;;;;18.60;36.66;100549.09;5011894;28;98227;-84
2023/04/19 08:12:44;;;;;;;16.55;14.05;;;;;;;18.92;36.27;100551.53;5013208;28;98347;-84
2023/04/19 08:15:10;;;;;;;17.98;15.82;;;;;;;18.70;36.15;100549.34;5004048;28;96884;-87
2023/04/19 08:17:35;;;;;;;15.43;13.75;;;;;;;17.90;37.35;100566.78;5036963;27;98031;-86
2023/04/19 08:20:01;;;;;;;15.50;13.90;;;;;;;17.41;37.79;100542.19;4997863;28;101805;-85
2023/04/19 08:22:27;;;;;;;14.82;13.60;;;;;;;17.23;38.50;100572.44;5007309;28;101547;-86
2023/04/19 08:24:52;;;;;;;14.95;13.65;;;;;;;17.41;38.08;100567.88;5018351;27;97523;-86
2023/04/19 08:27:18;;;;;;;15.80;14.18;;;;;;;16.95;38.60;100539.53;5007443;27;96962;-86
2023/04/19 08:29:44;;;;;;;16.42;14.25;;;;;;;17.32;38.89;100553.34;5041135;27;98076;-87
2023/04/19 08:32:11;;;;;;;15.20;13.68;;;;;;;17.00;38.47;100533.13;5009147;28;97045;-87
2023/04/19 08:34:38;;;;;;;17.98;15.32;;;;;;;16.77;39.09;100545.03;5006883;28;96979;-87
2023/04/19 08:37:06;;;;;;;15.73;14.25;;;;;;;16.23;40.37;100553.25;5010491;27;96812;-87
2023/04/19 08:39:32;;;;;;;15.63;14.05;;;;;;;15.76;40.66;100560.09;5006861;28;102092;-86
2023/04/19 08:42:05;;;;;;;16.00;14.50;;;;;;;15.35;41.10;100559.53;5016684;27;101486;-85
2023/04/19 08:44:31;;;;;;;16.80;15.23;;;;;;;14.89;42.32;100546.81;5018469;27;97117;-84
2023/04/19 08:46:58;;;;;;;15.77;14.30;;;;;;;14.80;42.40;100562.22;5013077;28;96890;-86
2023/04/19 08:49:24;;;;;;;15.52;14.32;;;;;;;14.56;42.50;100561.63;5012258;28;101302;-87
2023/04/19 08:51:50;;;;;;;15.88;14.45;;;;;;;14.31;43.51;100557.44;5012424;27;100943;-86
2023/04/19 08:54:16;;;;;;;15.38;13.98;;;;;;;14.06;43.63;100557.69;5027058;27;96908;-87
2023/04/19 08:56:41;;;;;;;16.45;14.90;;;;;;;13.91;44.15;100564.50;5014029;28;97371;-86
2023/04/19 08:59:07;;;;;;;16.17;14.55;;;;;;;13.66;44.10;100569.97;5006496;28;97594;-87
2023/04/19 09:01:32;;;;;;;15.50;14.20;;;;;;;13.47;44.57;100566.44;5028924;27;100181;-86
2023/04/19 09:03:58;;;;;;;17.45;15.48;;;;;;;13.35;44.53;100573.03;5014536;27;96912;-85
2023/04/19 09:06:25;;;;;;;16.45;15.00;;;;;;;13.17;44.95;100558.81;5033488;27;97708;-87
2023/04/19 09:08:56;;;;;;;16.25;14.80;;;;;;;13.03;45.66;100559.41;5005573;28;102392;-87
2023/04/19 09:11:26;;;;;;;;;;;;;;;12.84;46.25;100568.94;5024303;27;102086;-85
2023/04/19 09:13:54;;;;;;;21.10;16.48;;;;;;;12.87;46.37;100563.56;5012003;28;97462;-87
2023/04/19 09:16:23;;;;;;;17.45;15.73;;;;;;;12.75;46.52;100549.09;5008313;28;96908;-82
2023/04/19 09:18:54;;;;;;;18.20;15.45;;;;;;;12.69;47.06;100554.59;5006397;28;102019;-75
2023/04/19 09:21:28;;;;;;;16.30;14.63;;;;;;;12.63;46.83;100562.75;5028064;27;101435;-76
2023/04/19 09:23:53;;;;;;;20.00;13.77;;;;;;;12.70;47.14;100558.94;5010323;28;96784;-76
2023/04/19 09:26:19;;;;;;;17.85;15.20;;;;;;;12.71;47.26;100557.16;5008662;28;97197;-82
2023/04/19 09:29:04;;;;;;;18.80;14.90;;;;;;;12.72;47.45;100548.34;4989570;27;101727;-83
2023/04/19 09:31:34;;;;;;;16.88;15.23;;;;;;;12.69;47.78;100550.19;5020565;27;101556;-82
2023/04/19 09:34:16;;;;;;;17.92;14.48;;;;;;;12.68;47.55;100537.06;5010994;28;96764;-83
2023/04/19 09:36:42;;;;;;;16.38;14.02;;;;;;;12.60;47.82;100547.06;5027375;27;97890;-93
2023/04/19 09:39:09;;;;;;;18.05;14.10;;;;;;;12.64;48.15;100546.88;5019252;28;98037;-95
2023/04/19 09:41:52;;;;;;;16.58;14.65;;;;;;;12.50;47.81;100535.16;5021177;27;101593;-76
2023/04/19 09:44:18;;;;;;;16.17;14.55;;;;;;;12.59;48.05;100561.97;5025206;28;96727;-85
2023/04/19 09:46:47;;;;;;;16.67;15.02;;;;;;;12.48;48.02;100561.56;5027826;27;96873;-90
2023/04/19 09:49:16;;;;;;;16.65;15.35;;;;;;;12.42;48.46;100560.00;4992831;27;101387;-90
2023/04/19 09:51:46;;;;;;;26.17;15.73;;;;;;;12.38;48.83;100555.75;5028384;27;101251;-86
2023/04/19 09:54:13;;;;;;;17.52;15.73;;;;;;;12.36;48.72;100552.34;5019855;27;96818;-86
2023/04/19 09:56:39;;;;;;;17.73;14.85;;;;;;;12.33;48.85;100552.44;5032650;27;97231;-88
2023/04/19 09:59:05;;;;;;;15.20;13.88;;;;;;;12.37;48.96;100556.69;5006007;27;100093;-89
2023/04/19 10:01:43;;;;;;;18.55;13.48;;;;;;;12.34;49.24;100550.69;5026459;27;100153;-91
2023/04/19 10:04:11;;;;;;;16.92;13.90;;;;;;;12.26;48.57;100535.16;5011932;27;96822;-87
2023/04/19 10:06:37;;;;;;;14.50;13.00;;;;;;;12.20;48.97;100533.63;5009306;28;97678;-88
2023/04/19 10:09:04;;;;;;;17.02;13.90;;;;;;;12.23;49.01;100565.09;5037652;27;101676;-87
2023/04/19 10:11:39;;;;;;;17.10;15.30;;;;;;;12.11;49.10;100559.44;5017159;28;97568;-87
2023/04/19 10:14:07;;;;;;;15.55;14.00;;;;;;;12.11;49.01;100562.06;5033066;27;96858;-88
2023/04/19 10:16:33;;;;;;;22.98;13.93;;;;;;;12.09;49.90;100564.75;5016969;28;97262;-88
2023/04/19 10:19:00;;;;;;;16.60;14.43;;;;;;;11.73;49.61;100517.78;5030323;27;100240;-88
2023/04/19 10:21:27;;;;;;;15.38;13.20;;;;;;;11.60;50.19;100505.09;5025587;27;101054;-87
2023/04/19 10:23:57;;;;;;;16.08;14.10;;;;;;;11.65;50.69;100521.59;5015822;28;96902;-88
2023/04/19 10:26:23;;;;;;;21.08;13.60;;;;;;;11.87;50.43;100548.00;5027316;28;97989;-88
2023/04/19 10:28:49;;;;;;;15.30;13.65;;;;;;;11.86;50.32;100556.81;5011202;28;101405;-88
2023/04/19 10:31:20;;;;;;;20.65;13.73;;;;;;;11.62;50.03;100492.78;5052865;27;101277;-88
2023/04/19 10:33:46;;;;;;;17.60;14.13;;;;;;;11.83;50.46;100483.25;5031398;27;96814;-88
2023/04/19 10:36:14;;;;;;;15.35;13.85;;;;;;;12.26;50.67;100529.91;5038489;27;97002;-88
2023/04/19 10:38:54;;;;;;;16.77;14.63;;;;;;;12.37;51.26;100527.72;4991616;28;100785;-88
2023/04/19 10:41:20;;;;;;;20.08;14.23;;;;;;;12.48;50.76;100532.59;5013574;28;101233;-88
2023/04/19 10:43:59;;;;;;;17.25;14.10;;;;;;;12.28;50.22;100503.53;5013691;28;96872;-88
2023/04/19 10:46:24;;;;;;;21.13;14.27;;;;;;;12.52;50.62;100539.44;5031672;28;97141;-88
2023/04/19 10:49:00;;;;;;;25.83;15.38;;;;;;;12.47;49.89;100538.75;5008066;28;101876;-89
2023/04/19 10:51:28;;;;;;;16.38;13.63;;;;;;;12.48;50.24;100531.72;5025487;28;101640;-89
2023/04/19 10:54:07;;;;;;;17.58;15.00;;;;;;;12.51;50.33;100539.50;5014311;28;98180;-88
2023/04/19 10:56:33;;;;;;;15.48;14.02;;;;;;;12.55;50.49;100531.44;5012462;28;97431;-88
2023/04/19 10:59:09;;;;;;;21.00;14.85;;;;;;;12.54;49.42;100528.88;5008521;28;99744;-84
2023/04/19 11:01:41;;;;;;;20.60;15.30;;;;;;;12.51;49.95;100528.97;5022072;27;98413;-86
2023/04/19 11:04:26;;;;;;;15.80;14.20;;;;;;;12.32;49.84;100513.03;5007016;28;96906;-83
2023/04/19 11:06:51;;;;;;;22.13;14.90;;;;;;;12.33;50.50;100520.00;5029375;28;96943;-84
2023/04/19 11:09:30;;;;;;;17.27;14.55;;;;;;;12.20;50.64;100512.56;5011140;28;100715;-84
2023/04/19 11:12:03;;;;;;;18.88;15.38;;;;;;;12.23;50.71;100524.75;5004230;27;101389;-84